createdAt,value
2018-06-18T00:00:06.500Z,0
2018-06-18T00:00:47.022Z,0
2018-06-18T00:01:27.601Z,0
2018-06-18T00:02:08.134Z,0
2018-06-18T00:02:49.044Z,0
2018-06-18T00:03:29.195Z,0
2018-06-18T00:04:09.729Z,0
2018-06-18T00:04:50.232Z,0
2018-06-18T00:05:30.756Z,0
2018-06-18T00:06:11.399Z,0
2018-06-18T00:06:51.917Z,0
2018-06-18T00:07:32.443Z,0
2018-06-18T00:08:12.965Z,0
2018-06-18T00:08:53.466Z,0
2018-06-18T00:09:33.983Z,0
2018-06-18T00:10:14.508Z,0
2018-06-18T00:10:55.039Z,0
2018-06-18T00:11:35.575Z,0
2018-06-18T00:12:16.111Z,0
2018-06-18T00:12:56.629Z,0
2018-06-18T00:13:37.150Z,0
2018-06-18T00:14:17.668Z,0
2018-06-18T00:14:58.226Z,0
2018-06-18T00:15:38.731Z,0
2018-06-18T00:16:19.249Z,0
2018-06-18T00:16:59.805Z,0
2018-06-18T00:17:40.323Z,0
2018-06-18T00:18:20.838Z,0
2018-06-18T00:19:01.367Z,0
2018-06-18T00:19:42.004Z,0
2018-06-18T00:20:22.491Z,0
2018-06-18T00:21:02.976Z,0
2018-06-18T00:21:43.482Z,0
2018-06-18T00:22:23.995Z,0
2018-06-18T00:23:04.511Z,0
2018-06-18T00:23:45.030Z,0
2018-06-18T00:24:25.549Z,0
2018-06-18T00:25:06.078Z,0
2018-06-18T00:25:46.610Z,0
2018-06-18T00:26:27.129Z,0
2018-06-18T00:27:07.651Z,0
2018-06-18T00:27:48.170Z,0
2018-06-18T00:28:28.711Z,0
2018-06-18T00:29:09.239Z,0
2018-06-18T00:29:49.766Z,0
2018-06-18T00:30:30.287Z,0
2018-06-18T00:31:10.809Z,0
2018-06-18T00:31:51.361Z,0
2018-06-18T00:32:31.891Z,0
2018-06-18T00:33:12.410Z,0
2018-06-18T00:33:52.939Z,0
2018-06-18T00:34:33.447Z,0
2018-06-18T00:35:13.974Z,0
2018-06-18T00:35:54.473Z,0
2018-06-18T00:36:34.981Z,0
2018-06-18T00:37:15.504Z,0
2018-06-18T00:37:56.044Z,0
2018-06-18T00:38:36.572Z,0
2018-06-18T00:39:17.106Z,0
2018-06-18T00:39:57.636Z,0
2018-06-18T00:40:38.162Z,0
2018-06-18T00:41:18.693Z,0
2018-06-18T00:41:59.207Z,0
2018-06-18T00:42:39.759Z,0
2018-06-18T00:43:20.328Z,0
2018-06-18T00:44:00.803Z,0
2018-06-18T00:44:41.320Z,0
2018-06-18T00:45:21.847Z,0
2018-06-18T00:46:02.382Z,0
2018-06-18T00:46:42.908Z,0
2018-06-18T00:47:23.437Z,0
2018-06-18T00:48:03.949Z,0
2018-06-18T00:48:44.465Z,0
2018-06-18T00:49:24.990Z,0
2018-06-18T00:50:05.507Z,0
2018-06-18T00:50:46.037Z,0
2018-06-18T00:51:26.558Z,0
2018-06-18T00:52:07.094Z,0
2018-06-18T00:52:47.611Z,0
2018-06-18T00:53:28.147Z,0
2018-06-18T00:54:08.678Z,0
2018-06-18T00:54:49.210Z,0
2018-06-18T00:55:29.728Z,0
2018-06-18T00:56:10.259Z,0
2018-06-18T00:56:50.773Z,0
2018-06-18T00:57:31.294Z,0
2018-06-18T00:58:11.813Z,0
2018-06-18T00:58:52.353Z,0
2018-06-18T00:59:32.874Z,0
2018-06-18T01:00:13.401Z,0
2018-06-18T01:00:53.911Z,0
2018-06-18T01:01:34.469Z,0
2018-06-18T01:02:14.978Z,0
2018-06-18T01:02:55.506Z,0
2018-06-18T01:03:36.042Z,0
2018-06-18T01:04:16.553Z,0
2018-06-18T01:04:57.079Z,0
2018-06-18T01:05:37.605Z,0
2018-06-18T01:06:18.123Z,0
2018-06-18T01:06:58.638Z,0
2018-06-18T01:07:39.179Z,0
2018-06-18T01:08:19.706Z,0
2018-06-18T01:09:00.232Z,0
2018-06-18T01:09:40.778Z,0
2018-06-18T01:10:21.281Z,0
2018-06-18T01:11:01.797Z,0
2018-06-18T01:11:42.312Z,0
2018-06-18T01:12:22.830Z,0
2018-06-18T01:13:03.346Z,0
2018-06-18T01:13:43.879Z,0
2018-06-18T01:14:24.396Z,0
2018-06-18T01:15:04.914Z,0
2018-06-18T01:15:45.432Z,0
2018-06-18T01:16:25.973Z,0
2018-06-18T01:17:06.498Z,0
2018-06-18T01:17:47.020Z,0
2018-06-18T01:18:27.537Z,0
2018-06-18T01:19:08.063Z,0
2018-06-18T01:19:48.603Z,0
2018-06-18T01:20:29.136Z,0
2018-06-18T01:21:09.664Z,0
2018-06-18T01:21:50.161Z,0
2018-06-18T01:23:48.338Z,0
2018-06-18T01:24:28.864Z,0
2018-06-18T01:25:09.387Z,0
2018-06-18T01:25:49.898Z,0
2018-06-18T01:26:30.424Z,0
2018-06-18T01:27:10.945Z,0
2018-06-18T01:27:51.463Z,0
2018-06-18T01:28:31.982Z,0
2018-06-18T01:29:12.500Z,0
2018-06-18T01:29:53.017Z,0
2018-06-18T01:30:33.535Z,0
2018-06-18T01:31:14.053Z,0
2018-06-18T01:31:54.591Z,0
2018-06-18T01:32:35.115Z,0
2018-06-18T01:33:15.804Z,0
2018-06-18T01:33:56.318Z,0
2018-06-18T01:34:36.842Z,0
2018-06-18T01:35:17.352Z,0
2018-06-18T01:35:57.867Z,0
2018-06-18T01:36:38.389Z,0
2018-06-18T01:37:18.903Z,0
2018-06-18T01:37:59.416Z,0
2018-06-18T01:38:39.932Z,0
2018-06-18T01:39:20.464Z,0
2018-06-18T01:40:00.984Z,0
2018-06-18T01:40:41.491Z,0
2018-06-18T01:41:22.027Z,0
2018-06-18T01:42:02.538Z,0
2018-06-18T01:42:43.059Z,0
2018-06-18T01:43:23.588Z,0
2018-06-18T01:44:04.116Z,0
2018-06-18T01:44:44.633Z,0
2018-06-18T01:45:25.160Z,0
2018-06-18T01:46:05.680Z,0
2018-06-18T01:46:46.201Z,0
2018-06-18T01:47:26.720Z,0
2018-06-18T01:48:07.235Z,0
2018-06-18T01:48:47.762Z,0
2018-06-18T01:49:28.289Z,0
2018-06-18T01:50:08.807Z,0
2018-06-18T01:50:49.317Z,0
2018-06-18T01:51:29.844Z,0
2018-06-18T01:52:10.368Z,0
2018-06-18T01:52:50.898Z,0
2018-06-18T01:53:31.419Z,0
2018-06-18T01:54:11.951Z,0
2018-06-18T01:54:52.472Z,0
2018-06-18T01:55:32.999Z,0
2018-06-18T01:56:13.522Z,0
2018-06-18T01:56:54.036Z,0
2018-06-18T01:57:34.574Z,0
2018-06-18T01:58:15.096Z,0
2018-06-18T01:58:55.609Z,0
2018-06-18T01:59:36.129Z,0
2018-06-18T02:00:16.650Z,0
2018-06-18T02:00:57.167Z,0
2018-06-18T02:01:37.707Z,0
2018-06-18T02:02:18.234Z,0
2018-06-18T02:02:58.757Z,0
2018-06-18T02:03:39.279Z,0
2018-06-18T02:04:19.800Z,0
2018-06-18T02:05:00.318Z,0
2018-06-18T02:05:40.836Z,0
2018-06-18T02:06:21.371Z,0
2018-06-18T02:07:01.891Z,0
2018-06-18T02:07:42.414Z,0
2018-06-18T02:08:22.939Z,0
2018-06-18T02:09:03.460Z,0
2018-06-18T02:09:43.972Z,0
2018-06-18T02:10:24.501Z,0
2018-06-18T02:11:05.003Z,0
2018-06-18T02:11:45.507Z,0
2018-06-18T02:12:26.027Z,0
2018-06-18T02:13:06.547Z,0
2018-06-18T02:13:47.065Z,0
2018-06-18T02:14:27.598Z,0
2018-06-18T02:15:08.120Z,0
2018-06-18T02:15:48.641Z,0
2018-06-18T02:16:29.157Z,0
2018-06-18T02:17:09.694Z,0
2018-06-18T02:17:50.202Z,0
2018-06-18T02:18:30.735Z,0
2018-06-18T02:19:11.241Z,0
2018-06-18T02:19:51.757Z,0
2018-06-18T02:20:32.307Z,0
2018-06-18T02:21:12.838Z,0
2018-06-18T02:21:53.350Z,0
2018-06-18T02:22:33.880Z,0
2018-06-18T02:23:14.398Z,0
2018-06-18T02:23:54.931Z,0
2018-06-18T02:24:35.462Z,0
2018-06-18T02:25:15.983Z,0
2018-06-18T02:25:56.506Z,0
2018-06-18T02:26:37.088Z,0
2018-06-18T02:27:17.587Z,0
2018-06-18T02:27:58.102Z,0
2018-06-18T02:28:38.633Z,0
2018-06-18T02:29:19.159Z,0
2018-06-18T02:29:59.688Z,0
2018-06-18T02:30:40.189Z,0
2018-06-18T02:31:20.696Z,0
2018-06-18T02:32:01.211Z,0
2018-06-18T02:32:41.723Z,0
2018-06-18T02:33:22.237Z,0
2018-06-18T02:34:02.766Z,0
2018-06-18T02:34:43.282Z,0
2018-06-18T02:35:23.821Z,0
2018-06-18T02:36:04.334Z,0
2018-06-18T02:36:44.858Z,0
2018-06-18T02:37:25.380Z,0
2018-06-18T02:38:05.896Z,0
2018-06-18T02:38:46.418Z,0
2018-06-18T02:39:26.929Z,0
2018-06-18T02:40:07.445Z,0
2018-06-18T02:40:47.958Z,0
2018-06-18T02:41:28.467Z,0
2018-06-18T02:42:08.992Z,0
2018-06-18T02:42:49.513Z,4
2018-06-18T02:43:30.025Z,4
2018-06-18T02:44:10.539Z,4
2018-06-18T02:44:51.064Z,0
2018-06-18T02:45:31.580Z,0
2018-06-18T02:46:12.114Z,0
2018-06-18T02:46:52.631Z,4
2018-06-18T02:47:33.147Z,4
2018-06-18T02:48:13.662Z,4
2018-06-18T02:48:54.178Z,4
2018-06-18T02:49:34.746Z,4
2018-06-18T02:50:15.219Z,4
2018-06-18T02:50:55.750Z,4
2018-06-18T02:51:36.315Z,8
2018-06-18T02:52:16.833Z,4
2018-06-18T02:52:57.344Z,8
2018-06-18T02:53:37.863Z,8
2018-06-18T02:54:18.390Z,8
2018-06-18T02:54:58.899Z,12
2018-06-18T02:55:39.419Z,12
2018-06-18T02:56:19.947Z,16
2018-06-18T02:57:00.461Z,16
2018-06-18T02:57:40.977Z,16
2018-06-18T02:58:21.516Z,20
2018-06-18T02:59:02.032Z,20
2018-06-18T02:59:42.629Z,24
2018-06-18T03:00:23.069Z,24
2018-06-18T03:01:03.602Z,28
2018-06-18T03:01:44.131Z,28
2018-06-18T03:02:24.650Z,32
2018-06-18T03:03:05.168Z,36
2018-06-18T03:03:45.689Z,40
2018-06-18T03:04:26.209Z,44
2018-06-18T03:05:06.718Z,44
2018-06-18T03:05:47.253Z,52
2018-06-18T03:06:27.853Z,52
2018-06-18T03:07:08.376Z,60
2018-06-18T03:07:48.904Z,64
2018-06-18T03:08:29.419Z,64
2018-06-18T03:09:09.937Z,68
2018-06-18T03:09:50.459Z,76
2018-06-18T03:10:30.969Z,80
2018-06-18T03:11:11.490Z,84
2018-06-18T03:11:51.996Z,88
2018-06-18T03:12:32.516Z,92
2018-06-18T03:13:13.033Z,100
2018-06-18T03:13:53.544Z,104
2018-06-18T03:14:34.071Z,108
2018-06-18T03:15:14.597Z,112
2018-06-18T03:15:55.129Z,116
2018-06-18T03:16:35.652Z,124
2018-06-18T03:17:16.173Z,124
2018-06-18T03:17:56.742Z,128
2018-06-18T03:18:37.283Z,136
2018-06-18T03:19:17.798Z,144
2018-06-18T03:19:58.335Z,148
2018-06-18T03:20:38.873Z,156
2018-06-18T03:21:19.385Z,168
2018-06-18T03:21:59.890Z,176
2018-06-18T03:22:40.429Z,184
2018-06-18T03:23:20.942Z,196
2018-06-18T03:24:01.456Z,208
2018-06-18T03:24:42.001Z,220
2018-06-18T03:25:22.512Z,232
2018-06-18T03:26:03.040Z,244
2018-06-18T03:26:43.564Z,256
2018-06-18T03:27:24.057Z,272
2018-06-18T03:28:04.583Z,284
2018-06-18T03:28:45.102Z,304
2018-06-18T03:29:25.612Z,324
2018-06-18T03:30:06.116Z,344
2018-06-18T03:30:46.641Z,364
2018-06-18T03:31:27.159Z,384
2018-06-18T03:32:07.665Z,400
2018-06-18T03:32:48.221Z,416
2018-06-18T03:33:28.741Z,428
2018-06-18T03:34:09.274Z,440
2018-06-18T03:34:49.795Z,452
2018-06-18T03:35:30.316Z,468
2018-06-18T03:36:10.851Z,476
2018-06-18T03:36:51.368Z,488
2018-06-18T03:37:31.880Z,504
2018-06-18T03:38:12.405Z,520
2018-06-18T03:38:52.930Z,540
2018-06-18T03:39:33.442Z,548
2018-06-18T03:40:13.956Z,564
2018-06-18T03:40:54.486Z,580
2018-06-18T03:41:35.010Z,596
2018-06-18T03:42:15.515Z,620
2018-06-18T03:42:56.037Z,652
2018-06-18T03:43:36.570Z,692
2018-06-18T03:44:17.093Z,728
2018-06-18T03:44:57.631Z,764
2018-06-18T03:45:38.162Z,800
2018-06-18T03:46:18.689Z,824
2018-06-18T03:46:59.206Z,844
2018-06-18T03:47:39.713Z,864
2018-06-18T03:48:20.238Z,888
2018-06-18T03:49:00.750Z,924
2018-06-18T03:49:41.282Z,960
2018-06-18T03:50:21.804Z,1000
2018-06-18T03:51:02.312Z,1040
2018-06-18T03:51:42.829Z,1080
2018-06-18T03:52:23.401Z,1112
2018-06-18T03:53:03.868Z,1140
2018-06-18T03:53:44.386Z,1172
2018-06-18T03:54:24.908Z,1204
2018-06-18T03:55:05.430Z,1232
2018-06-18T03:55:45.962Z,1264
2018-06-18T03:56:26.459Z,1292
2018-06-18T03:57:06.977Z,1316
2018-06-18T03:57:47.504Z,1344
2018-06-18T03:58:28.044Z,1368
2018-06-18T03:59:08.554Z,1396
2018-06-18T03:59:49.075Z,1424
2018-06-18T04:00:29.619Z,1448
2018-06-18T04:01:10.139Z,1464
2018-06-18T04:01:50.661Z,1472
2018-06-18T04:02:31.197Z,1464
2018-06-18T04:03:11.811Z,1460
2018-06-18T04:03:52.355Z,1552
2018-06-18T04:04:32.888Z,1752
2018-06-18T04:05:13.434Z,1916
2018-06-18T04:05:53.915Z,1876
2018-06-18T04:06:34.428Z,1920
2018-06-18T04:07:14.946Z,2116
2018-06-18T04:07:55.461Z,2220
2018-06-18T04:08:35.978Z,2072
2018-06-18T04:09:16.498Z,1484
2018-06-18T04:09:57.060Z,1116
2018-06-18T04:10:37.585Z,1024
2018-06-18T04:11:18.109Z,1020
2018-06-18T04:11:58.629Z,1016
2018-06-18T04:12:39.220Z,1012
2018-06-18T04:13:19.731Z,1028
2018-06-18T04:14:00.260Z,1048
2018-06-18T04:14:40.784Z,1052
2018-06-18T04:15:21.298Z,1048
2018-06-18T04:16:01.831Z,1032
2018-06-18T04:16:42.323Z,1012
2018-06-18T04:17:22.848Z,988
2018-06-18T04:18:03.389Z,980
2018-06-18T04:18:43.909Z,976
2018-06-18T04:19:24.479Z,988
2018-06-18T04:20:04.956Z,1004
2018-06-18T04:20:45.477Z,1024
2018-06-18T04:21:25.995Z,1052
2018-06-18T04:22:06.513Z,1076
2018-06-18T04:22:47.031Z,1104
2018-06-18T04:23:27.594Z,1128
2018-06-18T04:24:08.802Z,1136
2018-06-18T04:24:49.333Z,1124
2018-06-18T04:25:29.855Z,1088
2018-06-18T04:26:10.368Z,1080
2018-06-18T04:26:50.895Z,1100
2018-06-18T04:27:31.418Z,1176
2018-06-18T04:28:11.934Z,1288
2018-06-18T04:28:52.452Z,1468
2018-06-18T04:29:32.993Z,1688
2018-06-18T04:30:13.557Z,1904
2018-06-18T04:30:54.050Z,2096
2018-06-18T04:31:34.569Z,2252
2018-06-18T04:32:15.095Z,2356
2018-06-18T04:32:55.643Z,2388
2018-06-18T04:33:36.153Z,2392
2018-06-18T04:34:16.679Z,2364
2018-06-18T04:34:57.193Z,2328
2018-06-18T04:35:37.724Z,2348
2018-06-18T04:36:18.236Z,2388
2018-06-18T04:36:58.762Z,2392
2018-06-18T04:37:39.382Z,2424
2018-06-18T04:38:19.812Z,2460
2018-06-18T04:39:00.328Z,2516
2018-06-18T04:39:40.847Z,2560
2018-06-18T04:40:21.374Z,2620
2018-06-18T04:41:01.928Z,2680
2018-06-18T04:41:42.443Z,2732
2018-06-18T04:42:22.965Z,2824
2018-06-18T04:43:03.498Z,2924
2018-06-18T04:43:44.022Z,3016
2018-06-18T04:44:24.534Z,3088
2018-06-18T04:45:05.061Z,3140
2018-06-18T04:45:45.596Z,3216
2018-06-18T04:46:26.114Z,3300
2018-06-18T04:47:06.630Z,3400
2018-06-18T04:47:47.152Z,3528
2018-06-18T04:48:27.680Z,3680
2018-06-18T04:49:08.223Z,3836
2018-06-18T04:49:48.753Z,3984
2018-06-18T04:50:29.274Z,4108
2018-06-18T04:51:09.791Z,4200
2018-06-18T04:51:50.315Z,4288
2018-06-18T04:52:30.846Z,4396
2018-06-18T04:53:11.365Z,4516
2018-06-18T04:53:51.891Z,4600
2018-06-18T04:54:32.419Z,4668
2018-06-18T04:55:12.945Z,4696
2018-06-18T04:55:53.470Z,4684
2018-06-18T04:56:34.046Z,4620
2018-06-18T04:57:14.536Z,4516
2018-06-18T04:57:55.052Z,4384
2018-06-18T04:58:35.560Z,4256
2018-06-18T04:59:16.092Z,4148
2018-06-18T04:59:56.625Z,4032
2018-06-18T05:00:37.138Z,3928
2018-06-18T05:01:17.660Z,3880
2018-06-18T05:01:58.209Z,3844
2018-06-18T05:02:38.725Z,3752
2018-06-18T05:03:19.250Z,3704
2018-06-18T05:03:59.760Z,3660
2018-06-18T05:04:40.286Z,3592
2018-06-18T05:05:20.818Z,3508
2018-06-18T05:06:01.337Z,3404
2018-06-18T05:06:41.851Z,3296
2018-06-18T05:07:22.354Z,3192
2018-06-18T05:08:02.869Z,3100
2018-06-18T05:08:43.406Z,3028
2018-06-18T05:09:23.937Z,2928
2018-06-18T05:10:04.454Z,2820
2018-06-18T05:10:44.984Z,2752
2018-06-18T05:11:25.525Z,2688
2018-06-18T05:12:06.154Z,2708
2018-06-18T05:12:46.632Z,2780
2018-06-18T05:13:27.144Z,2804
2018-06-18T05:14:07.661Z,2828
2018-06-18T05:14:48.187Z,2836
2018-06-18T05:15:28.713Z,2784
2018-06-18T05:16:09.241Z,2700
2018-06-18T05:16:49.761Z,2700
2018-06-18T05:17:30.280Z,2852
2018-06-18T05:18:10.804Z,3016
2018-06-18T05:18:51.333Z,3204
2018-06-18T05:19:31.831Z,3404
2018-06-18T05:20:12.346Z,3632
2018-06-18T05:20:52.879Z,3880
2018-06-18T05:21:33.410Z,4148
2018-06-18T05:22:13.937Z,4404
2018-06-18T05:22:54.467Z,4640
2018-06-18T05:23:34.985Z,4832
2018-06-18T05:24:15.510Z,4888
2018-06-18T05:24:56.065Z,4832
2018-06-18T05:25:36.594Z,4668
2018-06-18T05:26:17.138Z,4632
2018-06-18T05:26:57.644Z,5024
2018-06-18T05:27:38.167Z,5436
2018-06-18T05:28:18.688Z,5868
2018-06-18T05:28:59.205Z,6164
2018-06-18T05:29:39.714Z,6332
2018-06-18T05:30:20.231Z,6376
2018-06-18T05:31:00.754Z,6260
2018-06-18T05:31:41.270Z,5912
2018-06-18T05:32:21.900Z,5756
2018-06-18T05:33:02.418Z,5104
2018-06-18T05:33:42.948Z,4700
2018-06-18T05:34:23.466Z,4716
2018-06-18T05:35:03.975Z,5416
2018-06-18T05:35:44.514Z,5980
2018-06-18T05:36:25.054Z,6912
2018-06-18T05:37:05.568Z,7436
2018-06-18T05:37:46.099Z,7572
2018-06-18T05:38:26.619Z,7456
2018-06-18T05:39:07.131Z,7264
2018-06-18T05:39:47.658Z,7052
2018-06-18T05:40:28.195Z,6836
2018-06-18T05:41:08.713Z,6644
2018-06-18T05:41:49.232Z,6436
2018-06-18T05:42:29.757Z,6300
2018-06-18T05:43:10.286Z,6188
2018-06-18T05:43:50.811Z,6108
2018-06-18T05:44:31.352Z,6048
2018-06-18T05:45:11.864Z,5964
2018-06-18T05:45:52.380Z,5988
2018-06-18T05:46:32.922Z,6084
2018-06-18T05:47:13.455Z,6212
2018-06-18T05:47:53.973Z,6368
2018-06-18T05:48:34.525Z,6536
2018-06-18T05:49:15.058Z,6692
2018-06-18T05:49:55.569Z,6772
2018-06-18T05:50:36.174Z,6796
2018-06-18T05:51:16.619Z,6888
2018-06-18T05:51:57.153Z,7024
2018-06-18T05:52:37.688Z,7120
2018-06-18T05:53:18.227Z,7232
2018-06-18T05:53:58.746Z,7156
2018-06-18T05:54:39.272Z,7088
2018-06-18T05:55:19.800Z,6888
2018-06-18T05:56:00.311Z,6876
2018-06-18T05:56:40.835Z,6968
2018-06-18T05:57:21.360Z,7312
2018-06-18T05:58:01.888Z,7616
2018-06-18T05:58:42.396Z,7992
2018-06-18T05:59:22.932Z,8240
2018-06-18T06:00:03.495Z,8448
2018-06-18T06:00:43.991Z,8676
2018-06-18T06:01:24.527Z,8812
2018-06-18T06:02:05.045Z,8916
2018-06-18T06:02:45.567Z,8904
2018-06-18T06:03:26.092Z,8940
2018-06-18T06:04:06.631Z,8964
2018-06-18T06:04:47.163Z,9020
2018-06-18T06:05:27.748Z,8944
2018-06-18T06:06:08.344Z,8844
2018-06-18T06:06:48.802Z,8864
2018-06-18T06:07:29.321Z,9048
2018-06-18T06:08:09.832Z,9156
2018-06-18T06:08:50.362Z,9288
2018-06-18T06:09:30.887Z,9460
2018-06-18T06:10:11.399Z,9712
2018-06-18T06:10:51.924Z,10040
2018-06-18T06:11:32.452Z,10208
2018-06-18T06:12:12.969Z,10576
2018-06-18T06:12:53.509Z,11148
2018-06-18T06:13:34.016Z,12340
2018-06-18T06:14:14.548Z,12016
2018-06-18T06:14:55.068Z,12512
2018-06-18T06:15:35.601Z,12892
2018-06-18T06:16:16.119Z,13648
2018-06-18T06:16:56.650Z,12336
2018-06-18T06:17:37.201Z,12000
2018-06-18T06:18:17.737Z,12108
2018-06-18T06:18:58.256Z,11976
2018-06-18T06:19:38.806Z,11456
2018-06-18T06:20:19.315Z,10872
2018-06-18T06:20:59.833Z,10640
2018-06-18T06:21:40.349Z,9816
2018-06-18T06:22:20.889Z,9656
2018-06-18T06:23:01.412Z,9704
2018-06-18T06:23:41.938Z,9664
2018-06-18T06:24:22.463Z,9736
2018-06-18T06:25:02.988Z,9780
2018-06-18T06:25:43.572Z,9656
2018-06-18T06:26:24.090Z,9504
2018-06-18T06:27:04.615Z,9352
2018-06-18T06:27:45.141Z,9272
2018-06-18T06:28:25.658Z,9348
2018-06-18T06:29:06.181Z,9628
2018-06-18T06:29:46.699Z,9172
2018-06-18T06:30:27.219Z,8920
2018-06-18T06:31:07.740Z,8880
2018-06-18T06:31:48.268Z,8856
2018-06-18T06:32:28.831Z,8880
2018-06-18T06:33:09.367Z,9004
2018-06-18T06:33:49.911Z,9480
2018-06-18T06:34:30.438Z,10772
2018-06-18T06:35:10.985Z,9632
2018-06-18T06:35:51.521Z,8852
2018-06-18T06:36:32.041Z,8292
2018-06-18T06:37:12.566Z,8096
2018-06-18T06:37:53.095Z,7316
2018-06-18T06:38:33.630Z,7336
2018-06-18T06:39:14.150Z,7260
2018-06-18T06:39:54.666Z,7364
2018-06-18T06:40:35.181Z,7428
2018-06-18T06:41:15.727Z,8108
2018-06-18T06:41:56.245Z,10856
2018-06-18T06:42:36.784Z,10408
2018-06-18T06:43:17.309Z,10092
2018-06-18T06:43:57.828Z,9800
2018-06-18T06:44:38.356Z,9628
2018-06-18T06:45:18.900Z,9564
2018-06-18T06:45:59.419Z,9236
2018-06-18T06:46:39.971Z,8424
2018-06-18T06:47:20.493Z,9132
2018-06-18T06:48:01.012Z,8596
2018-06-18T06:48:41.530Z,8616
2018-06-18T06:49:22.088Z,8104
2018-06-18T06:50:02.590Z,7768
2018-06-18T06:50:43.110Z,7912
2018-06-18T06:51:23.646Z,8056
2018-06-18T06:52:04.170Z,8180
2018-06-18T06:52:44.695Z,8556
2018-06-18T06:53:25.219Z,8340
2018-06-18T06:54:06.372Z,7844
2018-06-18T06:54:46.242Z,8044
2018-06-18T06:55:26.771Z,8372
2018-06-18T06:56:07.308Z,8320
2018-06-18T06:56:47.824Z,8420
2018-06-18T06:57:28.339Z,8440
2018-06-18T06:58:08.853Z,8080
2018-06-18T06:58:49.390Z,7988
2018-06-18T06:59:29.942Z,6840
2018-06-18T07:00:10.457Z,6552
2018-06-18T07:00:50.978Z,6680
2018-06-18T07:01:31.491Z,7112
2018-06-18T07:02:12.025Z,7436
2018-06-18T07:02:52.537Z,7544
2018-06-18T07:03:33.049Z,7480
2018-06-18T07:04:13.575Z,7452
2018-06-18T07:04:54.101Z,7508
2018-06-18T07:05:34.621Z,7424
2018-06-18T07:06:15.144Z,7300
2018-06-18T07:06:55.674Z,7464
2018-06-18T07:07:36.228Z,7424
2018-06-18T07:08:16.748Z,7372
2018-06-18T07:08:57.269Z,7332
2018-06-18T07:09:37.805Z,7328
2018-06-18T07:10:18.343Z,7352
2018-06-18T07:10:58.873Z,7380
2018-06-18T07:11:39.399Z,7384
2018-06-18T07:12:19.916Z,7400
2018-06-18T07:13:00.422Z,7396
2018-06-18T07:13:41.008Z,7392
2018-06-18T07:14:21.462Z,7396
2018-06-18T07:15:01.979Z,7384
2018-06-18T07:15:42.510Z,7356
2018-06-18T07:16:23.022Z,7340
2018-06-18T07:17:03.543Z,7340
2018-06-18T07:17:44.064Z,7152
2018-06-18T07:18:24.623Z,7356
2018-06-18T07:19:05.127Z,7376
2018-06-18T07:19:45.653Z,7424
2018-06-18T07:20:26.175Z,7476
2018-06-18T07:21:06.703Z,7492
2018-06-18T07:21:47.218Z,7468
2018-06-18T07:22:27.747Z,7488
2018-06-18T07:23:08.276Z,7700
2018-06-18T07:23:48.788Z,7848
2018-06-18T07:24:29.306Z,8020
2018-06-18T07:25:09.840Z,8032
2018-06-18T07:25:50.356Z,8080
2018-06-18T07:26:30.885Z,8052
2018-06-18T07:27:11.407Z,8112
2018-06-18T07:27:51.940Z,8184
2018-06-18T07:28:32.454Z,8292
2018-06-18T07:29:12.970Z,8368
2018-06-18T07:29:53.499Z,8348
2018-06-18T07:30:34.332Z,5988
2018-06-18T07:31:14.550Z,7620
2018-06-18T07:31:55.062Z,7552
2018-06-18T07:32:35.590Z,7316
2018-06-18T07:33:16.116Z,7584
2018-06-18T07:33:56.637Z,8020
2018-06-18T07:34:37.169Z,7968
2018-06-18T07:35:17.688Z,7996
2018-06-18T07:35:58.221Z,7960
2018-06-18T07:36:38.757Z,8108
2018-06-18T07:37:19.292Z,8160
2018-06-18T07:37:59.847Z,8228
2018-06-18T07:38:40.380Z,8232
2018-06-18T07:39:20.894Z,8176
2018-06-18T07:40:01.422Z,8196
2018-06-18T07:40:41.960Z,4852
2018-06-18T07:41:22.501Z,5188
2018-06-18T07:42:03.028Z,4972
2018-06-18T07:42:43.561Z,4716
2018-06-18T07:43:24.081Z,4448
2018-06-18T07:44:04.596Z,7816
2018-06-18T07:44:45.129Z,8144
2018-06-18T07:45:25.645Z,5084
2018-06-18T07:46:06.170Z,8192
2018-06-18T07:46:46.687Z,8108
2018-06-18T07:47:27.202Z,5228
2018-06-18T07:48:07.747Z,5148
2018-06-18T07:48:48.287Z,4672
2018-06-18T07:49:28.833Z,4420
2018-06-18T07:50:09.356Z,4376
2018-06-18T07:50:49.862Z,5808
2018-06-18T07:51:30.472Z,7736
2018-06-18T07:52:10.918Z,7796
2018-06-18T07:52:51.440Z,7860
2018-06-18T07:53:31.960Z,7784
2018-06-18T07:54:12.486Z,7768
2018-06-18T07:54:53.013Z,7560
2018-06-18T07:55:33.543Z,6952
2018-06-18T07:56:14.086Z,6708
2018-06-18T07:56:54.616Z,6692
2018-06-18T07:57:35.202Z,6548
2018-06-18T07:58:15.664Z,6948
2018-06-18T07:58:56.189Z,7240
2018-06-18T07:59:36.726Z,4772
2018-06-18T08:00:17.255Z,6888
2018-06-18T08:00:57.781Z,7232
2018-06-18T08:01:38.306Z,7292
2018-06-18T08:02:18.840Z,7416
2018-06-18T08:02:59.377Z,7632
2018-06-18T08:03:39.992Z,5308
2018-06-18T08:04:20.435Z,5288
2018-06-18T08:05:00.971Z,5148
2018-06-18T08:05:41.502Z,7776
2018-06-18T08:06:22.019Z,6888
2018-06-18T08:07:02.552Z,4408
2018-06-18T08:07:43.069Z,3996
2018-06-18T08:08:23.613Z,3980
2018-06-18T08:09:04.165Z,4004
2018-06-18T08:09:44.739Z,4024
2018-06-18T08:10:25.214Z,4164
2018-06-18T08:11:05.762Z,4176
2018-06-18T08:11:46.300Z,4116
2018-06-18T08:12:26.826Z,4288
2018-06-18T08:13:07.350Z,4348
2018-06-18T08:13:47.868Z,4420
2018-06-18T08:14:28.404Z,4772
2018-06-18T08:15:08.944Z,7424
2018-06-18T08:15:49.471Z,7544
2018-06-18T08:16:30.065Z,7616
2018-06-18T08:17:10.558Z,7536
2018-06-18T08:17:51.081Z,7352
2018-06-18T08:18:31.612Z,7252
2018-06-18T08:19:12.142Z,7168
2018-06-18T08:19:52.646Z,6716
2018-06-18T08:20:33.223Z,4996
2018-06-18T08:21:13.741Z,5264
2018-06-18T08:21:54.272Z,5652
2018-06-18T08:22:34.788Z,7604
2018-06-18T08:23:15.330Z,5348
2018-06-18T08:23:55.926Z,4920
2018-06-18T08:24:36.395Z,5032
2018-06-18T08:25:16.934Z,5596
2018-06-18T08:25:57.473Z,7544
2018-06-18T08:26:38.010Z,7364
2018-06-18T08:27:18.530Z,5604
2018-06-18T08:27:59.058Z,5780
2018-06-18T08:28:39.583Z,5240
2018-06-18T08:29:20.117Z,6412
2018-06-18T08:30:00.649Z,6800
2018-06-18T08:30:41.173Z,6900
2018-06-18T08:31:21.690Z,5604
2018-06-18T08:32:02.214Z,5288
2018-06-18T08:32:42.729Z,5228
2018-06-18T08:33:23.255Z,6020
2018-06-18T08:34:03.776Z,5080
2018-06-18T08:34:44.364Z,5608
2018-06-18T08:35:24.848Z,5396
2018-06-18T08:36:05.374Z,5288
2018-06-18T08:36:45.903Z,5136
2018-06-18T08:37:26.435Z,5056
2018-06-18T08:38:06.957Z,5000
2018-06-18T08:38:47.482Z,4984
2018-06-18T08:39:28.001Z,4952
2018-06-18T08:40:08.539Z,4944
2018-06-18T08:40:49.061Z,4948
2018-06-18T08:41:29.600Z,3760
2018-06-18T08:42:10.171Z,3952
2018-06-18T08:42:50.695Z,3768
2018-06-18T08:43:31.277Z,3628
2018-06-18T08:44:11.735Z,3704
2018-06-18T08:44:52.263Z,4824
2018-06-18T08:45:32.781Z,4812
2018-06-18T08:46:13.304Z,4736
2018-06-18T08:46:53.827Z,4720
2018-06-18T08:47:34.347Z,4728
2018-06-18T08:48:14.863Z,4792
2018-06-18T08:48:55.388Z,4780
2018-06-18T08:49:35.895Z,4708
2018-06-18T08:50:16.448Z,4552
2018-06-18T08:50:56.961Z,3952
2018-06-18T08:51:37.487Z,3504
2018-06-18T08:52:18.010Z,3372
2018-06-18T08:52:58.558Z,3080
2018-06-18T08:53:39.082Z,3020
2018-06-18T08:54:19.599Z,3380
2018-06-18T08:55:00.125Z,3908
2018-06-18T08:55:40.643Z,4128
2018-06-18T08:56:21.184Z,4376
2018-06-18T08:57:01.702Z,4424
2018-06-18T08:57:42.226Z,4476
2018-06-18T08:58:22.746Z,4676
2018-06-18T08:59:03.297Z,4880
2018-06-18T08:59:43.830Z,5092
2018-06-18T09:00:24.355Z,5268
2018-06-18T09:01:04.876Z,5400
2018-06-18T09:01:45.423Z,5484
2018-06-18T09:02:25.946Z,5576
2018-06-18T09:03:06.484Z,5684
2018-06-18T09:03:46.994Z,5812
2018-06-18T09:04:27.516Z,6020
2018-06-18T09:05:08.041Z,6124
2018-06-18T09:05:48.583Z,6264
2018-06-18T09:06:29.104Z,6512
2018-06-18T09:07:09.628Z,6720
2018-06-18T09:07:50.158Z,6896
2018-06-18T09:08:30.719Z,6416
2018-06-18T09:09:11.248Z,7008
2018-06-18T09:09:51.780Z,7020
2018-06-18T09:10:32.388Z,7304
2018-06-18T09:11:12.900Z,7564
2018-06-18T09:11:53.422Z,7968
2018-06-18T09:12:33.939Z,8016
2018-06-18T09:13:14.465Z,8320
2018-06-18T09:13:54.988Z,8320
2018-06-18T09:14:35.532Z,8424
2018-06-18T09:15:16.122Z,8588
2018-06-18T09:15:56.694Z,8692
2018-06-18T09:16:37.162Z,8572
2018-06-18T09:17:17.698Z,8984
2018-06-18T09:17:58.431Z,8588
2018-06-18T09:18:38.961Z,8476
2018-06-18T09:19:19.483Z,8624
2018-06-18T09:20:00.005Z,8664